sensor_id;sensor_type;location;lat;lon;timestamp;P1;durP1;ratioP1;P2;durP2;ratioP2
10882;SDS011;5494;51.796;10.952;2022-07-23T00:02:05;8.37;;;5.63;;
10882;SDS011;5494;51.796;10.952;2022-07-23T00:04:34;7.87;;;5.53;;
10882;SDS011;5494;51.796;10.952;2022-07-23T00:07:02;6.97;;;6.27;;
10882;SDS011;5494;51.796;10.952;2022-07-23T00:09:32;7.23;;;5.67;;
10882;SDS011;5494;51.796;10.952;2022-07-23T00:12:00;8.37;;;5.83;;
10882;SDS011;5494;51.796;10.952;2022-07-23T00:14:29;9.23;;;6.10;;
10882;SDS011;5494;51.796;10.952;2022-07-23T00:16:57;7.33;;;5.57;;
10882;SDS011;5494;51.796;10.952;2022-07-23T00:19:26;8.43;;;5.43;;
10882;SDS011;5494;51.796;10.952;2022-07-23T00:21:56;8.73;;;6.33;;
10882;SDS011;5494;51.796;10.952;2022-07-23T00:24:24;6.60;;;5.90;;
10882;SDS011;5494;51.796;10.952;2022-07-23T00:26:54;8.37;;;6.07;;
10882;SDS011;5494;51.796;10.952;2022-07-23T00:29:22;7.33;;;5.63;;
10882;SDS011;5494;51.796;10.952;2022-07-23T00:31:51;6.63;;;6.03;;
10882;SDS011;5494;51.796;10.952;2022-07-23T00:34:19;9.60;;;5.60;;
10882;SDS011;5494;51.796;10.952;2022-07-23T00:36:48;8.70;;;6.07;;
10882;SDS011;5494;51.796;10.952;2022-07-23T00:39:16;8.60;;;6.10;;
10882;SDS011;5494;51.796;10.952;2022-07-23T00:41:45;11.93;;;7.70;;
10882;SDS011;5494;51.796;10.952;2022-07-23T00:44:15;15.70;;;9.67;;
10882;SDS011;5494;51.796;10.952;2022-07-23T00:46:47;14.93;;;10.27;;
10882;SDS011;5494;51.796;10.952;2022-07-23T00:49:19;20.67;;;12.10;;
10882;SDS011;5494;51.796;10.952;2022-07-23T00:51:48;14.60;;;9.50;;
10882;SDS011;5494;51.796;10.952;2022-07-23T00:54:18;12.47;;;6.83;;
10882;SDS011;5494;51.796;10.952;2022-07-23T00:56:49;10.20;;;7.47;;
10882;SDS011;5494;51.796;10.952;2022-07-23T00:59:20;8.10;;;6.83;;
10882;SDS011;5494;51.796;10.952;2022-07-23T01:01:48;9.00;;;7.00;;
10882;SDS011;5494;51.796;10.952;2022-07-23T01:04:17;17.90;;;9.90;;
10882;SDS011;5494;51.796;10.952;2022-07-23T01:06:46;20.10;;;11.70;;
10882;SDS011;5494;51.796;10.952;2022-07-23T01:09:14;17.87;;;9.67;;
10882;SDS011;5494;51.796;10.952;2022-07-23T01:11:43;13.60;;;9.13;;
10882;SDS011;5494;51.796;10.952;2022-07-23T01:14:12;16.43;;;10.10;;
10882;SDS011;5494;51.796;10.952;2022-07-23T01:16:48;16.17;;;10.17;;
10882;SDS011;5494;51.796;10.952;2022-07-23T01:19:17;16.37;;;10.90;;
10882;SDS011;5494;51.796;10.952;2022-07-23T01:21:46;15.13;;;11.57;;
10882;SDS011;5494;51.796;10.952;2022-07-23T01:24:18;15.53;;;11.90;;
10882;SDS011;5494;51.796;10.952;2022-07-23T01:26:56;16.50;;;12.10;;
10882;SDS011;5494;51.796;10.952;2022-07-23T01:29:25;19.33;;;13.27;;
10882;SDS011;5494;51.796;10.952;2022-07-23T01:31:54;15.23;;;12.70;;
10882;SDS011;5494;51.796;10.952;2022-07-23T01:34:23;16.87;;;12.07;;
10882;SDS011;5494;51.796;10.952;2022-07-23T01:36:51;18.40;;;12.97;;
10882;SDS011;5494;51.796;10.952;2022-07-23T01:39:21;16.97;;;12.37;;
10882;SDS011;5494;51.796;10.952;2022-07-23T01:41:51;21.60;;;13.13;;
10882;SDS011;5494;51.796;10.952;2022-07-23T01:44:20;16.13;;;12.80;;
10882;SDS011;5494;51.796;10.952;2022-07-23T01:46:48;18.37;;;12.87;;
10882;SDS011;5494;51.796;10.952;2022-07-23T01:49:19;17.30;;;13.17;;
10882;SDS011;5494;51.796;10.952;2022-07-23T01:52:06;20.47;;;13.13;;
10882;SDS011;5494;51.796;10.952;2022-07-23T01:54:44;16.60;;;13.00;;
10882;SDS011;5494;51.796;10.952;2022-07-23T01:57:12;21.70;;;13.00;;
10882;SDS011;5494;51.796;10.952;2022-07-23T01:59:40;15.23;;;12.30;;
10882;SDS011;5494;51.796;10.952;2022-07-23T02:02:09;17.93;;;12.93;;
10882;SDS011;5494;51.796;10.952;2022-07-23T02:04:38;18.03;;;12.40;;
10882;SDS011;5494;51.796;10.952;2022-07-23T02:07:06;19.50;;;14.40;;
10882;SDS011;5494;51.796;10.952;2022-07-23T02:09:35;18.93;;;14.17;;
10882;SDS011;5494;51.796;10.952;2022-07-23T02:12:05;18.87;;;14.00;;
10882;SDS011;5494;51.796;10.952;2022-07-23T02:14:33;20.87;;;14.90;;
10882;SDS011;5494;51.796;10.952;2022-07-23T02:17:04;20.53;;;14.87;;
10882;SDS011;5494;51.796;10.952;2022-07-23T02:19:34;21.13;;;16.03;;
10882;SDS011;5494;51.796;10.952;2022-07-23T02:22:03;22.63;;;16.63;;
10882;SDS011;5494;51.796;10.952;2022-07-23T02:24:31;22.33;;;14.90;;
10882;SDS011;5494;51.796;10.952;2022-07-23T02:26:59;20.87;;;15.93;;
10882;SDS011;5494;51.796;10.952;2022-07-23T02:29:29;21.00;;;16.50;;
10882;SDS011;5494;51.796;10.952;2022-07-23T02:31:57;20.23;;;15.43;;
10882;SDS011;5494;51.796;10.952;2022-07-23T02:34:26;26.30;;;15.83;;
10882;SDS011;5494;51.796;10.952;2022-07-23T02:36:55;18.83;;;14.13;;
10882;SDS011;5494;51.796;10.952;2022-07-23T02:39:26;18.27;;;14.73;;
10882;SDS011;5494;51.796;10.952;2022-07-23T02:41:54;16.97;;;13.53;;
10882;SDS011;5494;51.796;10.952;2022-07-23T02:44:23;16.23;;;12.90;;
10882;SDS011;5494;51.796;10.952;2022-07-23T02:46:54;17.67;;;13.83;;
10882;SDS011;5494;51.796;10.952;2022-07-23T02:49:23;19.23;;;14.50;;
10882;SDS011;5494;51.796;10.952;2022-07-23T02:51:51;20.27;;;13.63;;
10882;SDS011;5494;51.796;10.952;2022-07-23T02:54:19;18.80;;;13.67;;
10882;SDS011;5494;51.796;10.952;2022-07-23T02:56:48;17.13;;;13.20;;
10882;SDS011;5494;51.796;10.952;2022-07-23T02:59:18;17.83;;;13.40;;
10882;SDS011;5494;51.796;10.952;2022-07-23T03:01:47;20.20;;;14.00;;
10882;SDS011;5494;51.796;10.952;2022-07-23T03:04:18;17.27;;;13.50;;
10882;SDS011;5494;51.796;10.952;2022-07-23T03:06:46;19.87;;;12.83;;
10882;SDS011;5494;51.796;10.952;2022-07-23T03:09:15;18.23;;;12.83;;
10882;SDS011;5494;51.796;10.952;2022-07-23T03:11:43;19.13;;;13.27;;
10882;SDS011;5494;51.796;10.952;2022-07-23T03:14:12;16.27;;;13.33;;
10882;SDS011;5494;51.796;10.952;2022-07-23T03:16:42;16.73;;;13.30;;
10882;SDS011;5494;51.796;10.952;2022-07-23T03:19:11;17.30;;;13.07;;
10882;SDS011;5494;51.796;10.952;2022-07-23T03:21:42;17.70;;;14.60;;
10882;SDS011;5494;51.796;10.952;2022-07-23T03:24:11;19.87;;;14.13;;
10882;SDS011;5494;51.796;10.952;2022-07-23T03:26:40;18.33;;;14.37;;
10882;SDS011;5494;51.796;10.952;2022-07-23T03:29:08;15.97;;;14.00;;
10882;SDS011;5494;51.796;10.952;2022-07-23T03:31:37;19.20;;;14.93;;
10882;SDS011;5494;51.796;10.952;2022-07-23T03:34:07;18.70;;;14.33;;
10882;SDS011;5494;51.796;10.952;2022-07-23T03:36:36;22.67;;;14.13;;
10882;SDS011;5494;51.796;10.952;2022-07-23T03:39:06;20.70;;;14.07;;
10882;SDS011;5494;51.796;10.952;2022-07-23T03:41:38;19.00;;;14.53;;
10882;SDS011;5494;51.796;10.952;2022-07-23T03:44:07;19.03;;;14.87;;
10882;SDS011;5494;51.796;10.952;2022-07-23T03:46:35;17.23;;;12.73;;
10882;SDS011;5494;51.796;10.952;2022-07-23T03:49:04;17.00;;;13.20;;
10882;SDS011;5494;51.796;10.952;2022-07-23T03:51:34;19.17;;;13.40;;
10882;SDS011;5494;51.796;10.952;2022-07-23T03:54:02;17.13;;;12.63;;
10882;SDS011;5494;51.796;10.952;2022-07-23T03:56:32;17.27;;;13.73;;
10882;SDS011;5494;51.796;10.952;2022-07-23T03:59:00;16.83;;;12.10;;
10882;SDS011;5494;51.796;10.952;2022-07-23T04:01:30;15.70;;;12.17;;
10882;SDS011;5494;51.796;10.952;2022-07-23T04:03:59;16.03;;;12.77;;
10882;SDS011;5494;51.796;10.952;2022-07-23T04:06:28;17.40;;;12.70;;
10882;SDS011;5494;51.796;10.952;2022-07-23T04:08:58;15.53;;;12.47;;
10882;SDS011;5494;51.796;10.952;2022-07-23T04:11:28;16.83;;;12.17;;
10882;SDS011;5494;51.796;10.952;2022-07-23T04:13:59;16.53;;;12.63;;
10882;SDS011;5494;51.796;10.952;2022-07-23T04:16:27;14.80;;;11.07;;
10882;SDS011;5494;51.796;10.952;2022-07-23T04:18:58;13.50;;;11.37;;
10882;SDS011;5494;51.796;10.952;2022-07-23T04:21:32;14.93;;;11.53;;
10882;SDS011;5494;51.796;10.952;2022-07-23T04:24:01;16.97;;;12.27;;
10882;SDS011;5494;51.796;10.952;2022-07-23T04:26:29;16.00;;;11.47;;
10882;SDS011;5494;51.796;10.952;2022-07-23T04:28:59;14.60;;;11.37;;
10882;SDS011;5494;51.796;10.952;2022-07-23T04:31:28;13.33;;;11.30;;
10882;SDS011;5494;51.796;10.952;2022-07-23T04:34:03;16.00;;;10.97;;
10882;SDS011;5494;51.796;10.952;2022-07-23T04:36:32;18.20;;;11.87;;
10882;SDS011;5494;51.796;10.952;2022-07-23T04:39:02;14.43;;;10.73;;
10882;SDS011;5494;51.796;10.952;2022-07-23T04:41:31;17.73;;;11.57;;
10882;SDS011;5494;51.796;10.952;2022-07-23T04:44:02;16.13;;;11.40;;
10882;SDS011;5494;51.796;10.952;2022-07-23T04:46:31;14.43;;;11.57;;
10882;SDS011;5494;51.796;10.952;2022-07-23T04:49:00;15.43;;;11.27;;
10882;SDS011;5494;51.796;10.952;2022-07-23T04:51:31;17.73;;;13.03;;
10882;SDS011;5494;51.796;10.952;2022-07-23T04:53:59;18.70;;;11.80;;
10882;SDS011;5494;51.796;10.952;2022-07-23T04:56:31;18.80;;;12.90;;
10882;SDS011;5494;51.796;10.952;2022-07-23T04:59:01;17.07;;;12.13;;
10882;SDS011;5494;51.796;10.952;2022-07-23T05:01:31;17.07;;;12.00;;
10882;SDS011;5494;51.796;10.952;2022-07-23T05:04:00;15.27;;;11.83;;
10882;SDS011;5494;51.796;10.952;2022-07-23T05:06:32;17.30;;;12.27;;
10882;SDS011;5494;51.796;10.952;2022-07-23T05:09:01;18.17;;;11.57;;
10882;SDS011;5494;51.796;10.952;2022-07-23T05:11:31;19.37;;;11.90;;
10882;SDS011;5494;51.796;10.952;2022-07-23T05:14:00;15.23;;;11.53;;
10882;SDS011;5494;51.796;10.952;2022-07-23T05:16:30;16.30;;;11.40;;
10882;SDS011;5494;51.796;10.952;2022-07-23T05:19:03;15.03;;;11.77;;
10882;SDS011;5494;51.796;10.952;2022-07-23T05:21:34;13.53;;;10.67;;
10882;SDS011;5494;51.796;10.952;2022-07-23T05:24:02;16.60;;;11.63;;
10882;SDS011;5494;51.796;10.952;2022-07-23T05:26:32;14.70;;;11.43;;
10882;SDS011;5494;51.796;10.952;2022-07-23T05:29:03;15.33;;;11.57;;
10882;SDS011;5494;51.796;10.952;2022-07-23T05:31:32;14.57;;;11.13;;
10882;SDS011;5494;51.796;10.952;2022-07-23T05:34:01;16.47;;;11.30;;
10882;SDS011;5494;51.796;10.952;2022-07-23T05:36:30;15.40;;;10.73;;
10882;SDS011;5494;51.796;10.952;2022-07-23T05:39:01;14.63;;;11.13;;
10882;SDS011;5494;51.796;10.952;2022-07-23T05:41:35;15.63;;;10.03;;
10882;SDS011;5494;51.796;10.952;2022-07-23T05:44:04;17.33;;;10.80;;
10882;SDS011;5494;51.796;10.952;2022-07-23T05:46:37;13.07;;;10.13;;
10882;SDS011;5494;51.796;10.952;2022-07-23T05:49:08;12.77;;;10.23;;
10882;SDS011;5494;51.796;10.952;2022-07-23T05:51:55;15.00;;;11.23;;
10882;SDS011;5494;51.796;10.952;2022-07-23T05:54:34;13.67;;;11.30;;
10882;SDS011;5494;51.796;10.952;2022-07-23T05:57:03;18.43;;;11.80;;
10882;SDS011;5494;51.796;10.952;2022-07-23T05:59:33;15.57;;;11.73;;
10882;SDS011;5494;51.796;10.952;2022-07-23T06:02:02;20.00;;;11.80;;
10882;SDS011;5494;51.796;10.952;2022-07-23T06:04:31;16.70;;;11.40;;
10882;SDS011;5494;51.796;10.952;2022-07-23T06:07:17;15.23;;;11.27;;
10882;SDS011;5494;51.796;10.952;2022-07-23T06:09:46;15.73;;;10.10;;
10882;SDS011;5494;51.796;10.952;2022-07-23T06:12:16;15.23;;;10.67;;
10882;SDS011;5494;51.796;10.952;2022-07-23T06:14:48;15.30;;;11.00;;
10882;SDS011;5494;51.796;10.952;2022-07-23T06:17:19;15.07;;;11.17;;
10882;SDS011;5494;51.796;10.952;2022-07-23T06:19:48;15.53;;;10.23;;
10882;SDS011;5494;51.796;10.952;2022-07-23T06:22:18;18.53;;;11.67;;
10882;SDS011;5494;51.796;10.952;2022-07-23T06:24:47;16.03;;;10.10;;
10882;SDS011;5494;51.796;10.952;2022-07-23T06:27:19;16.17;;;9.67;;
10882;SDS011;5494;51.796;10.952;2022-07-23T06:29:53;14.97;;;9.17;;
10882;SDS011;5494;51.796;10.952;2022-07-23T06:32:22;12.00;;;9.07;;
10882;SDS011;5494;51.796;10.952;2022-07-23T06:34:50;14.57;;;9.07;;
10882;SDS011;5494;51.796;10.952;2022-07-23T06:37:21;13.27;;;8.60;;
10882;SDS011;5494;51.796;10.952;2022-07-23T06:39:50;10.50;;;8.20;;
10882;SDS011;5494;51.796;10.952;2022-07-23T06:42:19;13.63;;;8.93;;
10882;SDS011;5494;51.796;10.952;2022-07-23T06:44:57;11.07;;;8.63;;
10882;SDS011;5494;51.796;10.952;2022-07-23T06:47:26;11.73;;;7.90;;
10882;SDS011;5494;51.796;10.952;2022-07-23T06:49:54;10.63;;;8.40;;
10882;SDS011;5494;51.796;10.952;2022-07-23T06:52:24;11.13;;;8.57;;
10882;SDS011;5494;51.796;10.952;2022-07-23T06:54:53;13.27;;;9.07;;
10882;SDS011;5494;51.796;10.952;2022-07-23T06:57:21;12.63;;;9.73;;
10882;SDS011;5494;51.796;10.952;2022-07-23T06:59:52;11.63;;;8.70;;
10882;SDS011;5494;51.796;10.952;2022-07-23T07:02:23;10.77;;;8.73;;
10882;SDS011;5494;51.796;10.952;2022-07-23T07:04:53;12.50;;;8.87;;
10882;SDS011;5494;51.796;10.952;2022-07-23T07:07:30;10.67;;;8.20;;
10882;SDS011;5494;51.796;10.952;2022-07-23T07:09:59;12.00;;;8.57;;
10882;SDS011;5494;51.796;10.952;2022-07-23T07:12:27;10.87;;;8.70;;
10882;SDS011;5494;51.796;10.952;2022-07-23T07:14:56;13.67;;;8.97;;
10882;SDS011;5494;51.796;10.952;2022-07-23T07:17:25;12.17;;;9.20;;
10882;SDS011;5494;51.796;10.952;2022-07-23T07:19:54;13.90;;;8.73;;
10882;SDS011;5494;51.796;10.952;2022-07-23T07:22:22;11.47;;;8.67;;
10882;SDS011;5494;51.796;10.952;2022-07-23T07:24:50;12.13;;;9.30;;
10882;SDS011;5494;51.796;10.952;2022-07-23T07:27:19;13.63;;;9.37;;
10882;SDS011;5494;51.796;10.952;2022-07-23T07:29:47;10.93;;;9.27;;
10882;SDS011;5494;51.796;10.952;2022-07-23T07:32:16;13.93;;;9.43;;
10882;SDS011;5494;51.796;10.952;2022-07-23T07:35:07;15.23;;;10.73;;
10882;SDS011;5494;51.796;10.952;2022-07-23T07:37:36;14.10;;;11.37;;
10882;SDS011;5494;51.796;10.952;2022-07-23T07:40:05;12.67;;;11.23;;
10882;SDS011;5494;51.796;10.952;2022-07-23T07:42:43;13.20;;;9.87;;
10882;SDS011;5494;51.796;10.952;2022-07-23T07:45:12;15.30;;;10.03;;
10882;SDS011;5494;51.796;10.952;2022-07-23T07:47:41;17.90;;;11.07;;
10882;SDS011;5494;51.796;10.952;2022-07-23T07:50:12;12.90;;;11.60;;
10882;SDS011;5494;51.796;10.952;2022-07-23T07:52:40;16.93;;;13.03;;
10882;SDS011;5494;51.796;10.952;2022-07-23T07:55:09;14.60;;;12.77;;
10882;SDS011;5494;51.796;10.952;2022-07-23T07:57:38;13.67;;;11.97;;
10882;SDS011;5494;51.796;10.952;2022-07-23T08:00:15;12.73;;;11.30;;
10882;SDS011;5494;51.796;10.952;2022-07-23T08:02:46;13.73;;;11.00;;
10882;SDS011;5494;51.796;10.952;2022-07-23T08:05:20;13.60;;;11.67;;
10882;SDS011;5494;51.796;10.952;2022-07-23T08:07:54;17.67;;;14.37;;
10882;SDS011;5494;51.796;10.952;2022-07-23T08:10:24;17.33;;;15.43;;
10882;SDS011;5494;51.796;10.952;2022-07-23T08:12:55;16.43;;;14.30;;
10882;SDS011;5494;51.796;10.952;2022-07-23T08:15:25;14.70;;;13.27;;
10882;SDS011;5494;51.796;10.952;2022-07-23T08:17:56;14.33;;;11.80;;
10882;SDS011;5494;51.796;10.952;2022-07-23T08:20:27;12.67;;;11.37;;
10882;SDS011;5494;51.796;10.952;2022-07-23T08:22:57;13.70;;;12.40;;
10882;SDS011;5494;51.796;10.952;2022-07-23T08:25:29;15.30;;;12.90;;
10882;SDS011;5494;51.796;10.952;2022-07-23T08:28:00;14.07;;;12.40;;
10882;SDS011;5494;51.796;10.952;2022-07-23T08:30:31;12.73;;;11.53;;
10882;SDS011;5494;51.796;10.952;2022-07-23T08:33:02;13.37;;;11.97;;
10882;SDS011;5494;51.796;10.952;2022-07-23T08:35:35;12.93;;;11.67;;
10882;SDS011;5494;51.796;10.952;2022-07-23T08:38:07;13.27;;;10.80;;
10882;SDS011;5494;51.796;10.952;2022-07-23T08:40:38;12.60;;;9.90;;
10882;SDS011;5494;51.796;10.952;2022-07-23T08:43:10;9.87;;;8.73;;
10882;SDS011;5494;51.796;10.952;2022-07-23T08:45:43;9.77;;;8.00;;
10882;SDS011;5494;51.796;10.952;2022-07-23T08:48:15;8.93;;;8.03;;
10882;SDS011;5494;51.796;10.952;2022-07-23T08:50:50;9.23;;;7.30;;
10882;SDS011;5494;51.796;10.952;2022-07-23T08:53:24;8.37;;;7.43;;
10882;SDS011;5494;51.796;10.952;2022-07-23T08:55:56;9.60;;;7.00;;
10882;SDS011;5494;51.796;10.952;2022-07-23T08:58:28;10.30;;;6.70;;
10882;SDS011;5494;51.796;10.952;2022-07-23T09:00:59;7.27;;;6.43;;
10882;SDS011;5494;51.796;10.952;2022-07-23T09:03:29;10.33;;;7.30;;
10882;SDS011;5494;51.796;10.952;2022-07-23T09:06:02;7.87;;;6.47;;
10882;SDS011;5494;51.796;10.952;2022-07-23T09:08:36;6.17;;;5.57;;
10882;SDS011;5494;51.796;10.952;2022-07-23T09:11:07;9.70;;;6.50;;
10882;SDS011;5494;51.796;10.952;2022-07-23T09:13:38;7.10;;;6.20;;
10882;SDS011;5494;51.796;10.952;2022-07-23T09:16:11;7.37;;;6.67;;
10882;SDS011;5494;51.796;10.952;2022-07-23T09:18:44;9.27;;;7.23;;
10882;SDS011;5494;51.796;10.952;2022-07-23T09:21:21;7.83;;;6.03;;
10882;SDS011;5494;51.796;10.952;2022-07-23T09:23:56;8.00;;;6.13;;
10882;SDS011;5494;51.796;10.952;2022-07-23T09:26:32;6.57;;;5.47;;
10882;SDS011;5494;51.796;10.952;2022-07-23T09:29:04;7.97;;;5.30;;
10882;SDS011;5494;51.796;10.952;2022-07-23T09:31:42;6.03;;;4.80;;
10882;SDS011;5494;51.796;10.952;2022-07-23T09:34:15;6.43;;;4.83;;
10882;SDS011;5494;51.796;10.952;2022-07-23T09:36:51;5.33;;;4.73;;
10882;SDS011;5494;51.796;10.952;2022-07-23T09:39:24;8.87;;;5.47;;
10882;SDS011;5494;51.796;10.952;2022-07-23T09:41:56;5.10;;;4.43;;
10882;SDS011;5494;51.796;10.952;2022-07-23T09:44:26;4.57;;;4.17;;
10882;SDS011;5494;51.796;10.952;2022-07-23T09:46:57;6.20;;;4.07;;
10882;SDS011;5494;51.796;10.952;2022-07-23T09:49:28;5.03;;;4.40;;
10882;SDS011;5494;51.796;10.952;2022-07-23T09:51:59;6.07;;;3.87;;
10882;SDS011;5494;51.796;10.952;2022-07-23T09:54:30;4.47;;;3.50;;
10882;SDS011;5494;51.796;10.952;2022-07-23T09:57:03;3.57;;;3.20;;
10882;SDS011;5494;51.796;10.952;2022-07-23T09:59:38;5.77;;;4.00;;
10882;SDS011;5494;51.796;10.952;2022-07-23T10:02:08;4.53;;;3.80;;
10882;SDS011;5494;51.796;10.952;2022-07-23T10:04:55;4.47;;;3.77;;
10882;SDS011;5494;51.796;10.952;2022-07-23T10:07:46;5.07;;;3.87;;
10882;SDS011;5494;51.796;10.952;2022-07-23T10:10:39;4.47;;;3.87;;
10882;SDS011;5494;51.796;10.952;2022-07-23T10:13:27;4.47;;;3.50;;
10882;SDS011;5494;51.796;10.952;2022-07-23T10:16:13;4.77;;;3.57;;
10882;SDS011;5494;51.796;10.952;2022-07-23T10:18:53;5.67;;;3.53;;
10882;SDS011;5494;51.796;10.952;2022-07-23T10:21:24;4.17;;;3.50;;
10882;SDS011;5494;51.796;10.952;2022-07-23T10:24:04;4.00;;;3.60;;
10882;SDS011;5494;51.796;10.952;2022-07-23T10:26:51;4.53;;;3.23;;
10882;SDS011;5494;51.796;10.952;2022-07-23T10:29:36;4.40;;;3.63;;
10882;SDS011;5494;51.796;10.952;2022-07-23T10:32:19;3.63;;;3.03;;
10882;SDS011;5494;51.796;10.952;2022-07-23T10:35:03;4.03;;;3.33;;
10882;SDS011;5494;51.796;10.952;2022-07-23T10:37:47;6.23;;;4.03;;
10882;SDS011;5494;51.796;10.952;2022-07-23T10:40:22;5.23;;;3.73;;
10882;SDS011;5494;51.796;10.952;2022-07-23T10:42:50;4.13;;;3.27;;
10882;SDS011;5494;51.796;10.952;2022-07-23T10:45:27;4.37;;;3.10;;
10882;SDS011;5494;51.796;10.952;2022-07-23T10:48:11;5.43;;;3.50;;
10882;SDS011;5494;51.796;10.952;2022-07-23T10:50:44;3.93;;;3.40;;
10882;SDS011;5494;51.796;10.952;2022-07-23T11:02:52;6.40;;;3.03;;
10882;SDS011;5494;51.796;10.952;2022-07-23T11:05:22;3.40;;;3.10;;
10882;SDS011;5494;51.796;10.952;2022-07-23T11:08:09;3.30;;;3.00;;
10882;SDS011;5494;51.796;10.952;2022-07-23T11:10:45;3.47;;;3.13;;
10882;SDS011;5494;51.796;10.952;2022-07-23T11:13:38;3.80;;;3.30;;
10882;SDS011;5494;51.796;10.952;2022-07-23T11:16:21;4.53;;;3.47;;
10882;SDS011;5494;51.796;10.952;2022-07-23T11:18:59;6.80;;;3.13;;
10882;SDS011;5494;51.796;10.952;2022-07-23T11:21:42;3.63;;;3.27;;
10882;SDS011;5494;51.796;10.952;2022-07-23T11:24:19;3.87;;;3.47;;
10882;SDS011;5494;51.796;10.952;2022-07-23T11:26:52;5.13;;;3.80;;
10882;SDS011;5494;51.796;10.952;2022-07-23T11:29:44;3.50;;;3.20;;
10882;SDS011;5494;51.796;10.952;2022-07-23T11:32:23;4.70;;;3.20;;
10882;SDS011;5494;51.796;10.952;2022-07-23T11:34:57;3.80;;;3.33;;
10882;SDS011;5494;51.796;10.952;2022-07-23T11:37:28;4.63;;;3.10;;
10882;SDS011;5494;51.796;10.952;2022-07-23T11:40:03;3.30;;;3.00;;
10882;SDS011;5494;51.796;10.952;2022-07-23T11:42:37;4.10;;;2.93;;
10882;SDS011;5494;51.796;10.952;2022-07-23T11:45:08;3.47;;;2.70;;
10882;SDS011;5494;51.796;10.952;2022-07-23T11:47:37;3.83;;;3.17;;
10882;SDS011;5494;51.796;10.952;2022-07-23T11:50:06;3.37;;;2.53;;
10882;SDS011;5494;51.796;10.952;2022-07-23T11:52:36;3.40;;;2.83;;
10882;SDS011;5494;51.796;10.952;2022-07-23T11:55:05;3.13;;;2.80;;
10882;SDS011;5494;51.796;10.952;2022-07-23T11:57:37;3.93;;;2.80;;
10882;SDS011;5494;51.796;10.952;2022-07-23T12:00:11;2.70;;;2.50;;
10882;SDS011;5494;51.796;10.952;2022-07-23T12:02:43;4.23;;;2.47;;
10882;SDS011;5494;51.796;10.952;2022-07-23T12:05:15;4.57;;;4.17;;
10882;SDS011;5494;51.796;10.952;2022-07-23T12:07:45;3.87;;;2.43;;
10882;SDS011;5494;51.796;10.952;2022-07-23T12:10:18;2.93;;;2.40;;
10882;SDS011;5494;51.796;10.952;2022-07-23T12:12:49;4.03;;;2.43;;
10882;SDS011;5494;51.796;10.952;2022-07-23T12:15:24;2.30;;;2.10;;
10882;SDS011;5494;51.796;10.952;2022-07-23T12:17:57;3.47;;;2.30;;
10882;SDS011;5494;51.796;10.952;2022-07-23T12:20:29;6.37;;;4.47;;
10882;SDS011;5494;51.796;10.952;2022-07-23T12:23:02;4.00;;;3.00;;
10882;SDS011;5494;51.796;10.952;2022-07-23T12:25:33;3.50;;;2.30;;
10882;SDS011;5494;51.796;10.952;2022-07-23T12:28:04;3.00;;;2.50;;
10882;SDS011;5494;51.796;10.952;2022-07-23T12:30:38;3.97;;;2.70;;
10882;SDS011;5494;51.796;10.952;2022-07-23T12:33:10;3.37;;;2.80;;
10882;SDS011;5494;51.796;10.952;2022-07-23T12:35:41;4.63;;;2.67;;
10882;SDS011;5494;51.796;10.952;2022-07-23T12:38:14;4.13;;;3.73;;
10882;SDS011;5494;51.796;10.952;2022-07-23T12:40:46;2.50;;;2.30;;
10882;SDS011;5494;51.796;10.952;2022-07-23T12:43:20;2.40;;;2.20;;
10882;SDS011;5494;51.796;10.952;2022-07-23T12:45:54;6.20;;;2.60;;
10882;SDS011;5494;51.796;10.952;2022-07-23T12:48:30;2.50;;;2.20;;
10882;SDS011;5494;51.796;10.952;2022-07-23T12:51:05;3.80;;;2.60;;
10882;SDS011;5494;51.796;10.952;2022-07-23T12:53:44;2.80;;;2.30;;
10882;SDS011;5494;51.796;10.952;2022-07-23T12:56:18;3.17;;;2.23;;
10882;SDS011;5494;51.796;10.952;2022-07-23T12:58:49;3.70;;;2.43;;
10882;SDS011;5494;51.796;10.952;2022-07-23T13:01:23;2.33;;;2.13;;
10882;SDS011;5494;51.796;10.952;2022-07-23T13:03:56;3.50;;;2.53;;
10882;SDS011;5494;51.796;10.952;2022-07-23T13:06:28;2.83;;;2.30;;
10882;SDS011;5494;51.796;10.952;2022-07-23T13:08:59;3.17;;;2.40;;
10882;SDS011;5494;51.796;10.952;2022-07-23T13:11:31;5.47;;;2.63;;
10882;SDS011;5494;51.796;10.952;2022-07-23T13:14:01;2.20;;;1.97;;
10882;SDS011;5494;51.796;10.952;2022-07-23T13:16:36;2.70;;;2.10;;
10882;SDS011;5494;51.796;10.952;2022-07-23T13:19:05;3.00;;;2.10;;
10882;SDS011;5494;51.796;10.952;2022-07-23T13:21:38;2.67;;;2.00;;
10882;SDS011;5494;51.796;10.952;2022-07-23T13:24:08;3.33;;;2.23;;
10882;SDS011;5494;51.796;10.952;2022-07-23T13:26:39;2.97;;;2.07;;
10882;SDS011;5494;51.796;10.952;2022-07-23T13:29:08;2.90;;;2.10;;
10882;SDS011;5494;51.796;10.952;2022-07-23T13:31:39;2.60;;;2.10;;
10882;SDS011;5494;51.796;10.952;2022-07-23T13:34:07;2.80;;;2.23;;
10882;SDS011;5494;51.796;10.952;2022-07-23T13:36:36;3.10;;;2.53;;
10882;SDS011;5494;51.796;10.952;2022-07-23T13:39:05;2.20;;;2.00;;
10882;SDS011;5494;51.796;10.952;2022-07-23T13:41:36;3.07;;;2.20;;
10882;SDS011;5494;51.796;10.952;2022-07-23T13:44:06;3.60;;;2.20;;
10882;SDS011;5494;51.796;10.952;2022-07-23T13:46:34;4.20;;;2.13;;
10882;SDS011;5494;51.796;10.952;2022-07-23T13:49:04;2.87;;;2.37;;
10882;SDS011;5494;51.796;10.952;2022-07-23T13:51:36;1.97;;;1.60;;
10882;SDS011;5494;51.796;10.952;2022-07-23T13:54:06;2.77;;;2.00;;
10882;SDS011;5494;51.796;10.952;2022-07-23T13:56:35;1.90;;;1.80;;
10882;SDS011;5494;51.796;10.952;2022-07-23T13:59:03;2.20;;;2.00;;
10882;SDS011;5494;51.796;10.952;2022-07-23T14:01:33;3.43;;;2.20;;
10882;SDS011;5494;51.796;10.952;2022-07-23T14:04:17;2.33;;;2.00;;
10882;SDS011;5494;51.796;10.952;2022-07-23T14:06:46;3.60;;;1.97;;
10882;SDS011;5494;51.796;10.952;2022-07-23T14:09:20;2.07;;;1.87;;
10882;SDS011;5494;51.796;10.952;2022-07-23T14:11:51;2.37;;;1.77;;
10882;SDS011;5494;51.796;10.952;2022-07-23T14:14:20;2.50;;;1.87;;
10882;SDS011;5494;51.796;10.952;2022-07-23T14:16:49;2.80;;;1.87;;
10882;SDS011;5494;51.796;10.952;2022-07-23T14:19:19;3.30;;;2.17;;
10882;SDS011;5494;51.796;10.952;2022-07-23T14:21:47;2.10;;;1.90;;
10882;SDS011;5494;51.796;10.952;2022-07-23T14:24:16;2.53;;;2.00;;
10882;SDS011;5494;51.796;10.952;2022-07-23T14:26:47;2.07;;;1.50;;
10882;SDS011;5494;51.796;10.952;2022-07-23T14:29:16;2.03;;;1.83;;
10882;SDS011;5494;51.796;10.952;2022-07-23T14:31:45;4.13;;;1.93;;
10882;SDS011;5494;51.796;10.952;2022-07-23T14:34:13;1.77;;;1.60;;
10882;SDS011;5494;51.796;10.952;2022-07-23T14:36:43;2.37;;;1.87;;
10882;SDS011;5494;51.796;10.952;2022-07-23T14:39:12;3.33;;;2.07;;
10882;SDS011;5494;51.796;10.952;2022-07-23T14:41:42;3.53;;;1.87;;
10882;SDS011;5494;51.796;10.952;2022-07-23T14:44:11;1.77;;;1.50;;
10882;SDS011;5494;51.796;10.952;2022-07-23T14:46:39;1.73;;;1.63;;
10882;SDS011;5494;51.796;10.952;2022-07-23T14:49:08;2.60;;;1.90;;
10882;SDS011;5494;51.796;10.952;2022-07-23T14:51:36;2.90;;;1.90;;
10882;SDS011;5494;51.796;10.952;2022-07-23T14:54:06;2.90;;;1.87;;
10882;SDS011;5494;51.796;10.952;2022-07-23T14:56:35;3.10;;;1.90;;
10882;SDS011;5494;51.796;10.952;2022-07-23T14:59:03;2.17;;;1.70;;
10882;SDS011;5494;51.796;10.952;2022-07-23T15:01:33;3.27;;;1.87;;
10882;SDS011;5494;51.796;10.952;2022-07-23T15:04:02;3.13;;;1.87;;
10882;SDS011;5494;51.796;10.952;2022-07-23T15:06:51;2.67;;;1.83;;
10882;SDS011;5494;51.796;10.952;2022-07-23T15:09:21;1.70;;;1.60;;
10882;SDS011;5494;51.796;10.952;2022-07-23T15:11:50;2.20;;;1.83;;